Oxford, Florida
Current Conditions -  °F | °C
As of 2:53 AM on Sunday 21 Dec 2014 (Local Time) from KLEE Reporting Station
Haze Haze  
Wind Chill: 62°   Ceiling: 400
Heat Index: 62°   Visibility: 6mi
Dew Point: 60°   Wind: 6mph
Humidity: 93%   Direction: 50°NE
Pressure: 30.08"   Gusts: NA
Location:  28.93°N, 82.04°W
Report Text: KLEE 210753Z AUTO 05005KT 6SM BR BKN004 17/16 A3008 RMK AO2 SLP185 T01670156
Loading
Personal Weather Stations






























Interactive Weather Map New forecast layout! Learn more

10-Day Weather Forecast

Advertisements
Track Severe Weather on mobile